createdAt,value
2022-10-01T00:00:40.667Z,22.87
2022-10-01T00:01:42.489Z,22.39
2022-10-01T00:02:44.304Z,23.06
2022-10-01T00:03:47.797Z,22.91
2022-10-01T00:04:50.870Z,23.29
2022-10-01T00:06:20.484Z,23.36
2022-10-01T00:07:23.082Z,23.30
2022-10-01T00:08:24.870Z,23.15
2022-10-01T00:09:26.885Z,22.71
2022-10-01T00:10:30.272Z,22.69
2022-10-01T00:11:34.470Z,23.02
2022-10-01T00:12:37.364Z,23.24
2022-10-01T00:13:39.956Z,22.77
2022-10-01T00:14:41.828Z,22.98
2022-10-01T00:15:43.820Z,23.07
2022-10-01T00:16:45.748Z,22.96
2022-10-01T00:17:47.762Z,23.01
2022-10-01T00:18:50.439Z,23.19
2022-10-01T00:19:52.299Z,23.01
2022-10-01T00:20:54.062Z,22.34
2022-10-01T00:21:55.863Z,22.45
2022-10-01T00:22:57.592Z,22.94
2022-10-01T00:24:05.244Z,22.79
2022-10-01T00:25:07.373Z,23.17
2022-10-01T00:26:17.836Z,23.06
2022-10-01T00:27:19.904Z,22.84
2022-10-01T00:28:21.689Z,22.83
2022-10-01T00:29:23.488Z,22.95
2022-10-01T00:30:25.414Z,23.13
2022-10-01T00:31:27.987Z,22.74
2022-10-01T00:32:32.297Z,22.86
2022-10-01T00:33:34.634Z,22.59
2022-10-01T00:34:36.441Z,22.78
2022-10-01T00:35:38.170Z,23.02
2022-10-01T00:36:39.954Z,22.68
2022-10-01T00:37:42.759Z,22.80
2022-10-01T00:38:46.401Z,21.95
2022-10-01T00:39:48.107Z,22.69
2022-10-01T00:40:50.641Z,22.86
2022-10-01T00:41:52.694Z,22.58
2022-10-01T00:42:54.427Z,22.82
2022-10-01T00:43:59.105Z,23.03
2022-10-01T00:45:02.367Z,22.78
2022-10-01T00:46:12.481Z,22.65
2022-10-01T00:47:40.076Z,22.91
2022-10-01T00:49:15.196Z,23.13
2022-10-01T00:50:28.337Z,23.03
2022-10-01T00:51:35.441Z,23.09
2022-10-01T00:52:41.347Z,22.93
2022-10-01T00:53:44.657Z,22.19
2022-10-01T00:55:01.508Z,22.48
2022-10-01T00:56:03.375Z,22.67
2022-10-01T00:57:07.398Z,22.77
2022-10-01T00:58:12.222Z,22.83
2022-10-01T00:59:16.351Z,22.96
2022-10-01T01:00:18.266Z,22.69
2022-10-01T01:01:21.097Z,22.89
2022-10-01T01:02:23.195Z,22.78
2022-10-01T01:03:25.471Z,22.57
2022-10-01T01:04:27.959Z,22.51
2022-10-01T01:05:29.753Z,22.75
2022-10-01T01:06:31.606Z,22.65
2022-10-01T01:07:35.146Z,22.59
2022-10-01T01:08:36.962Z,22.44
2022-10-01T01:09:46.491Z,22.56
2022-10-01T01:11:04.184Z,22.90
2022-10-01T01:12:32.978Z,22.93
2022-10-01T01:13:52.950Z,22.59
2022-10-01T01:15:16.126Z,23.00
2022-10-01T01:16:34.073Z,22.77
2022-10-01T01:17:47.603Z,22.77
2022-10-01T01:19:27.574Z,22.98
2022-10-01T01:20:58.107Z,23.00
2022-10-01T01:22:05.050Z,22.75
2022-10-01T01:23:16.101Z,22.93
2022-10-01T01:24:33.209Z,22.88
2022-10-01T01:25:47.931Z,22.87
2022-10-01T01:27:02.579Z,22.87
2022-10-01T01:28:26.552Z,22.70
2022-10-01T01:29:38.523Z,22.44
2022-10-01T01:30:41.509Z,22.54
2022-10-01T01:31:48.974Z,22.31
2022-10-01T01:33:04.782Z,22.67
2022-10-01T01:34:13.141Z,22.81
2022-10-01T01:35:32.151Z,22.43
2022-10-01T01:36:38.085Z,22.45
2022-10-01T01:37:48.974Z,22.63
2022-10-01T01:38:55.887Z,22.52
2022-10-01T01:40:00.419Z,22.37
2022-10-01T01:41:03.589Z,21.81
2022-10-01T01:42:10.483Z,22.56
2022-10-01T01:43:20.643Z,22.71
2022-10-01T01:44:28.461Z,22.43
2022-10-01T01:45:31.014Z,22.25
2022-10-01T01:46:38.254Z,22.34
2022-10-01T01:47:42.236Z,22.45
2022-10-01T01:48:47.612Z,22.55
2022-10-01T01:49:51.701Z,22.69
2022-10-01T01:51:32.962Z,22.74
2022-10-01T01:52:35.552Z,22.46
2022-10-01T01:53:37.917Z,22.18
2022-10-01T01:54:40.445Z,22.50
2022-10-01T01:55:45.077Z,22.35
2022-10-01T01:56:49.704Z,22.52
2022-10-01T01:57:51.584Z,22.57
2022-10-01T01:58:57.437Z,22.64
2022-10-01T01:59:59.632Z,22.53
2022-10-01T02:01:02.254Z,22.26
2022-10-01T02:02:06.925Z,22.44
2022-10-01T02:03:09.268Z,22.01
2022-10-01T02:04:19.783Z,22.63
2022-10-01T02:05:26.128Z,21.92
2022-10-01T02:06:33.853Z,22.64
2022-10-01T02:07:35.504Z,22.63
2022-10-01T02:08:52.197Z,22.63
2022-10-01T02:10:24.985Z,22.68
2022-10-01T02:11:32.565Z,22.67
2022-10-01T02:12:47.454Z,22.68
2022-10-01T02:13:56.796Z,22.33
2022-10-01T02:15:09.825Z,22.64
2022-10-01T02:16:32.901Z,22.37
2022-10-01T02:17:54.171Z,22.68
2022-10-01T02:19:27.245Z,22.71
2022-10-01T02:20:39.508Z,22.71
2022-10-01T02:21:46.476Z,22.45
2022-10-01T02:23:09.991Z,22.52
2022-10-01T02:24:23.058Z,22.64
2022-10-01T02:25:31.522Z,22.48
2022-10-01T02:26:35.665Z,22.34
2022-10-01T02:27:45.421Z,22.36
2022-10-01T02:28:51.335Z,22.36
2022-10-01T02:29:56.249Z,21.12
2022-10-01T02:31:00.590Z,22.54
2022-10-01T02:32:02.552Z,22.26
2022-10-01T02:33:06.744Z,22.52
2022-10-01T02:34:12.701Z,22.02
2022-10-01T02:35:18.154Z,22.30
2022-10-01T02:36:22.301Z,22.36
2022-10-01T02:37:27.201Z,22.51
2022-10-01T02:38:30.940Z,22.13
2022-10-01T02:39:35.004Z,22.50
2022-10-01T02:40:42.288Z,22.40
2022-10-01T02:41:45.995Z,21.65
2022-10-01T02:42:52.941Z,22.29
2022-10-01T02:44:01.476Z,22.05
2022-10-01T02:45:05.380Z,22.51
2022-10-01T02:46:21.467Z,22.32
2022-10-01T02:47:38.028Z,22.51
2022-10-01T02:48:39.822Z,21.88
2022-10-01T02:49:41.791Z,22.05
2022-10-01T02:50:48.414Z,22.49
2022-10-01T02:51:53.507Z,22.47
2022-10-01T02:53:06.166Z,22.47
2022-10-01T02:54:16.199Z,22.48
2022-10-01T02:55:24.157Z,22.33
2022-10-01T02:56:48.944Z,22.48
2022-10-01T02:57:51.700Z,22.33
2022-10-01T02:58:54.007Z,22.26
2022-10-01T02:59:59.901Z,22.24
2022-10-01T03:01:01.889Z,22.19
2022-10-01T03:02:04.273Z,22.29
2022-10-01T03:03:06.237Z,21.91
2022-10-01T03:04:08.004Z,22.20
2022-10-01T03:05:09.869Z,22.29
2022-10-01T03:06:11.817Z,21.55
2022-10-01T03:07:13.836Z,22.14
2022-10-01T03:08:15.551Z,22.08
2022-10-01T03:09:17.355Z,21.94
2022-10-01T03:10:19.923Z,22.19
2022-10-01T03:11:21.745Z,22.40
2022-10-01T03:12:23.813Z,22.02
2022-10-01T03:13:25.605Z,22.08
2022-10-01T03:14:28.279Z,22.39
2022-10-01T03:15:30.000Z,21.51
2022-10-01T03:16:31.711Z,22.07
2022-10-01T03:17:33.457Z,21.63
2022-10-01T03:18:35.168Z,22.17
2022-10-01T03:19:37.145Z,22.23
2022-10-01T03:20:39.033Z,21.84
2022-10-01T03:21:40.869Z,22.14
2022-10-01T03:22:45.962Z,22.36
2022-10-01T03:23:47.655Z,22.11
2022-10-01T03:24:50.910Z,22.16
2022-10-01T03:25:52.753Z,21.99
2022-10-01T03:26:56.925Z,21.94
2022-10-01T03:27:59.071Z,22.26
2022-10-01T03:29:00.844Z,22.36
2022-10-01T03:30:02.599Z,22.09
2022-10-01T03:31:09.689Z,22.08
2022-10-01T03:32:12.334Z,22.37
2022-10-01T03:33:14.051Z,22.24
2022-10-01T03:34:15.900Z,21.82
2022-10-01T03:35:17.732Z,22.19
2022-10-01T03:36:19.633Z,21.89
2022-10-01T03:37:21.415Z,22.06
2022-10-01T03:38:23.118Z,22.15
2022-10-01T03:39:24.836Z,21.34
2022-10-01T03:40:26.776Z,21.14
2022-10-01T03:41:28.481Z,21.96
2022-10-01T03:42:30.254Z,21.53
2022-10-01T03:43:32.076Z,22.06
2022-10-01T03:44:34.149Z,21.81
2022-10-01T03:45:36.080Z,22.32
2022-10-01T03:46:37.854Z,22.11
2022-10-01T03:47:39.959Z,22.22
2022-10-01T03:48:42.240Z,21.47
2022-10-01T03:49:43.988Z,21.97
2022-10-01T03:50:56.706Z,22.31
2022-10-01T03:51:59.467Z,21.19
2022-10-01T03:53:01.164Z,21.48
2022-10-01T03:54:04.856Z,22.25
2022-10-01T03:55:07.211Z,21.97
2022-10-01T03:56:09.073Z,21.74
2022-10-01T03:57:10.972Z,22.09
2022-10-01T03:58:12.985Z,22.05
2022-10-01T03:59:15.030Z,22.08
2022-10-01T04:00:18.470Z,21.44
2022-10-01T04:01:20.841Z,22.20
2022-10-01T04:02:22.755Z,22.07
2022-10-01T04:03:24.641Z,22.06
2022-10-01T04:04:28.935Z,21.92
2022-10-01T04:05:31.082Z,22.01
2022-10-01T04:06:33.284Z,22.08
2022-10-01T04:07:35.048Z,22.12
2022-10-01T04:08:38.024Z,22.25
2022-10-01T04:09:39.713Z,22.11
2022-10-01T04:10:42.032Z,21.46
2022-10-01T04:11:44.047Z,22.25
2022-10-01T04:12:45.760Z,22.14
2022-10-01T04:13:47.841Z,21.73
2022-10-01T04:14:49.659Z,22.06
2022-10-01T04:15:51.480Z,22.01
2022-10-01T04:16:53.256Z,21.70
2022-10-01T04:17:55.020Z,22.24
2022-10-01T04:18:56.717Z,21.95
2022-10-01T04:20:00.288Z,21.59
2022-10-01T04:21:03.712Z,22.23
2022-10-01T04:22:05.513Z,21.99
2022-10-01T04:23:07.412Z,22.13
2022-10-01T04:24:09.119Z,21.98
2022-10-01T04:25:12.407Z,21.45
2022-10-01T04:26:14.196Z,21.59
2022-10-01T04:27:15.937Z,21.96
2022-10-01T04:28:17.771Z,22.21
2022-10-01T04:29:19.596Z,22.00
2022-10-01T04:30:21.800Z,21.93
2022-10-01T04:31:26.491Z,21.40
2022-10-01T04:32:28.392Z,21.36
2022-10-01T04:33:30.111Z,21.94
2022-10-01T04:34:50.402Z,22.20
2022-10-01T04:35:52.128Z,22.08
2022-10-01T04:36:53.902Z,21.65
2022-10-01T04:37:57.275Z,21.98
2022-10-01T04:39:02.190Z,21.44
2022-10-01T04:40:06.103Z,22.03
2022-10-01T04:41:09.297Z,22.19
2022-10-01T04:42:13.469Z,21.52
2022-10-01T04:43:15.172Z,21.77
2022-10-01T04:44:16.944Z,21.86
2022-10-01T04:45:18.751Z,22.03
2022-10-01T04:46:20.868Z,21.88
2022-10-01T04:47:23.054Z,21.98
2022-10-01T04:48:24.783Z,21.75
2022-10-01T04:49:26.545Z,20.78
2022-10-01T04:50:28.577Z,21.74
2022-10-01T04:51:30.365Z,21.63
2022-10-01T04:52:32.059Z,21.97
2022-10-01T04:53:33.748Z,22.15
2022-10-01T04:54:35.718Z,21.71
2022-10-01T04:55:37.907Z,21.44
2022-10-01T04:56:39.645Z,21.90
2022-10-01T04:57:41.895Z,21.87
2022-10-01T04:58:43.664Z,21.39
2022-10-01T04:59:45.601Z,21.97
2022-10-01T05:00:49.414Z,21.68
2022-10-01T05:01:51.692Z,21.78
2022-10-01T05:02:54.023Z,21.90
2022-10-01T05:03:55.727Z,21.82
2022-10-01T05:04:57.455Z,21.89
2022-10-01T05:05:59.181Z,21.49
2022-10-01T05:07:00.887Z,21.40
2022-10-01T05:08:03.188Z,22.14
2022-10-01T05:09:04.880Z,21.59
2022-10-01T05:10:10.263Z,22.09
2022-10-01T05:11:11.979Z,21.94
2022-10-01T05:12:13.768Z,21.95
2022-10-01T05:13:15.486Z,21.69
2022-10-01T05:14:17.397Z,21.72
2022-10-01T05:15:19.593Z,21.97
2022-10-01T05:16:21.340Z,21.91
2022-10-01T05:17:23.247Z,21.88
2022-10-01T05:18:25.207Z,22.00
2022-10-01T05:19:29.366Z,21.62
2022-10-01T05:20:31.335Z,21.90
2022-10-01T05:21:33.262Z,21.84
2022-10-01T05:22:35.253Z,21.89
2022-10-01T05:23:37.584Z,21.39
2022-10-01T05:24:40.203Z,20.99
2022-10-01T05:25:42.812Z,21.61
2022-10-01T05:26:45.054Z,21.98
2022-10-01T05:27:47.185Z,22.14
2022-10-01T05:28:48.990Z,21.16
2022-10-01T05:29:51.226Z,21.65
2022-10-01T05:30:52.921Z,21.98
2022-10-01T05:31:55.131Z,21.25
2022-10-01T05:32:58.901Z,22.11
2022-10-01T05:34:00.682Z,21.86
2022-10-01T05:35:03.156Z,21.73
2022-10-01T05:36:06.949Z,21.84
2022-10-01T05:37:09.587Z,22.05
2022-10-01T05:38:11.291Z,21.89
2022-10-01T05:39:13.259Z,21.88
2022-10-01T05:40:15.393Z,21.63
2022-10-01T05:41:17.155Z,22.02
2022-10-01T05:42:18.984Z,21.78
2022-10-01T05:43:20.720Z,21.97
2022-10-01T05:44:23.404Z,21.86
2022-10-01T05:45:27.760Z,22.04
2022-10-01T05:46:29.560Z,22.03
2022-10-01T05:47:31.424Z,21.91
2022-10-01T05:48:37.923Z,22.16
2022-10-01T05:49:44.558Z,21.93
2022-10-01T05:50:46.685Z,22.06
2022-10-01T05:51:49.076Z,21.56
2022-10-01T05:52:53.046Z,22.11
2022-10-01T05:53:55.837Z,22.21
2022-10-01T05:54:58.640Z,21.82
2022-10-01T05:56:02.965Z,22.21
2022-10-01T05:57:05.837Z,22.09
2022-10-01T05:58:10.553Z,22.06
2022-10-01T05:59:12.592Z,22.01
2022-10-01T06:00:14.809Z,22.11
2022-10-01T06:01:16.560Z,21.96
2022-10-01T06:02:18.469Z,22.02
2022-10-01T06:03:20.352Z,22.01
2022-10-01T06:04:22.075Z,21.68
2022-10-01T06:05:24.682Z,22.21
2022-10-01T06:06:27.722Z,22.22
2022-10-01T06:07:32.492Z,22.12
2022-10-01T06:08:35.365Z,22.12
2022-10-01T06:09:37.101Z,22.06
2022-10-01T06:10:39.581Z,22.26
2022-10-01T06:11:42.038Z,22.06
2022-10-01T06:12:44.034Z,22.08
2022-10-01T06:13:46.868Z,21.17
2022-10-01T06:14:48.568Z,21.45
2022-10-01T06:15:52.817Z,21.90
2022-10-01T06:16:55.079Z,22.11
2022-10-01T06:17:56.931Z,22.01
2022-10-01T06:18:58.801Z,22.19
2022-10-01T06:20:00.795Z,21.73
2022-10-01T06:21:02.726Z,22.20
2022-10-01T06:22:04.431Z,22.36
2022-10-01T06:23:09.681Z,22.53
2022-10-01T06:24:11.913Z,21.71
2022-10-01T06:25:14.212Z,22.43
2022-10-01T06:26:16.890Z,22.42
2022-10-01T06:27:18.928Z,22.48
2022-10-01T06:28:20.786Z,22.44
2022-10-01T06:29:23.295Z,22.77
2022-10-01T06:30:31.786Z,22.48
2022-10-01T06:31:33.978Z,22.66
2022-10-01T06:32:36.444Z,22.57
2022-10-01T06:33:38.207Z,22.63
2022-10-01T06:34:39.997Z,22.88
2022-10-01T06:35:44.375Z,23.01
2022-10-01T06:36:46.132Z,22.27
2022-10-01T06:37:47.846Z,22.95
2022-10-01T06:38:49.673Z,22.79
2022-10-01T06:39:51.429Z,23.00
2022-10-01T06:41:00.790Z,23.19
2022-10-01T06:42:02.474Z,23.10
2022-10-01T06:43:04.528Z,23.03
2022-10-01T06:44:06.424Z,22.95
2022-10-01T06:45:08.551Z,22.94
2022-10-01T06:46:11.435Z,23.16
2022-10-01T06:47:13.205Z,23.21
2022-10-01T06:48:17.170Z,23.43
2022-10-01T06:49:20.656Z,22.95
2022-10-01T06:50:23.509Z,23.00
2022-10-01T06:51:45.213Z,23.21
2022-10-01T06:52:49.902Z,23.44
2022-10-01T06:53:51.612Z,23.38
2022-10-01T06:54:53.355Z,23.33
2022-10-01T06:55:55.823Z,23.46
2022-10-01T06:56:57.580Z,23.39
2022-10-01T06:58:03.886Z,23.48
2022-10-01T06:59:05.645Z,23.25
2022-10-01T07:00:08.112Z,23.48
2022-10-01T07:01:10.045Z,23.45
2022-10-01T07:02:23.877Z,23.72
2022-10-01T07:03:25.864Z,23.50
2022-10-01T07:04:27.568Z,23.75
2022-10-01T07:05:30.063Z,23.56
2022-10-01T07:06:32.787Z,23.47
2022-10-01T07:07:37.940Z,23.37
2022-10-01T07:08:40.602Z,23.58
2022-10-01T07:09:42.344Z,23.74
2022-10-01T07:10:44.479Z,23.43
2022-10-01T07:11:46.166Z,23.58
2022-10-01T07:12:51.534Z,23.58
2022-10-01T07:13:54.735Z,23.63
2022-10-01T07:14:56.726Z,23.52
2022-10-01T07:15:58.510Z,23.53
2022-10-01T07:17:00.639Z,23.64
2022-10-01T07:18:02.558Z,23.30
2022-10-01T07:19:04.352Z,23.61
2022-10-01T07:20:06.850Z,23.77
2022-10-01T07:21:08.853Z,23.62
2022-10-01T07:22:10.569Z,23.66
2022-10-01T07:23:14.572Z,23.88
2022-10-01T07:24:16.591Z,23.66
2022-10-01T07:25:18.514Z,23.75
2022-10-01T07:26:20.216Z,23.71
2022-10-01T07:27:21.973Z,23.92
2022-10-01T07:28:25.797Z,23.70
2022-10-01T07:29:27.800Z,23.77
2022-10-01T07:30:30.070Z,23.84
2022-10-01T07:31:32.371Z,23.68
2022-10-01T07:32:35.635Z,23.62
2022-10-01T07:33:38.530Z,23.74
2022-10-01T07:34:40.468Z,23.69
2022-10-01T07:35:42.376Z,23.66
2022-10-01T07:36:45.289Z,23.66
2022-10-01T07:37:50.954Z,23.47
2022-10-01T07:38:52.743Z,23.79
2022-10-01T07:39:54.519Z,23.53
2022-10-01T07:40:56.356Z,23.70
2022-10-01T07:41:59.033Z,23.92
2022-10-01T07:43:00.746Z,23.74
2022-10-01T07:44:04.139Z,23.50
2022-10-01T07:45:06.804Z,23.54
2022-10-01T07:46:08.605Z,23.37
2022-10-01T07:47:10.388Z,23.43
2022-10-01T07:48:12.150Z,23.73
2022-10-01T07:49:14.811Z,23.64
2022-10-01T07:50:16.661Z,23.73
2022-10-01T07:51:18.550Z,23.60
2022-10-01T07:52:20.252Z,23.40
2022-10-01T07:53:24.162Z,23.43
2022-10-01T07:54:26.623Z,23.58
2022-10-01T07:55:30.831Z,23.42
2022-10-01T07:56:32.613Z,23.53
2022-10-01T07:57:35.166Z,23.41
2022-10-01T07:58:37.117Z,23.81
2022-10-01T07:59:40.425Z,23.81
2022-10-01T08:00:43.636Z,23.67
2022-10-01T08:01:49.912Z,23.69
2022-10-01T08:02:53.948Z,23.66
2022-10-01T08:03:56.008Z,23.78
2022-10-01T08:05:16.230Z,23.76
2022-10-01T08:06:24.598Z,23.96
2022-10-01T08:07:27.871Z,23.50
2022-10-01T08:08:31.217Z,23.47
2022-10-01T08:09:33.119Z,23.55
2022-10-01T08:10:36.961Z,23.67
2022-10-01T08:11:38.698Z,23.61
2022-10-01T08:12:42.787Z,23.93
2022-10-01T08:13:45.898Z,23.94
2022-10-01T08:14:47.968Z,23.60
2022-10-01T08:15:50.696Z,23.79
2022-10-01T08:16:55.823Z,23.94
2022-10-01T08:18:01.591Z,23.60
2022-10-01T08:19:03.473Z,23.77
2022-10-01T08:20:07.633Z,23.85
2022-10-01T08:21:09.501Z,23.08
2022-10-01T08:22:12.357Z,23.68
2022-10-01T08:23:16.718Z,23.82
2022-10-01T08:24:18.501Z,23.99
2022-10-01T08:25:20.207Z,23.90
2022-10-01T08:26:21.916Z,23.83
2022-10-01T08:27:25.363Z,23.94
2022-10-01T08:28:27.756Z,23.51
2022-10-01T08:29:29.536Z,23.78
2022-10-01T08:30:31.622Z,23.81
2022-10-01T08:31:33.738Z,23.69
2022-10-01T08:32:35.786Z,23.69
2022-10-01T08:33:38.576Z,23.82
2022-10-01T08:34:40.373Z,23.80
2022-10-01T08:35:43.703Z,24.04
2022-10-01T08:36:45.898Z,24.03
2022-10-01T08:37:47.601Z,23.66
2022-10-01T08:38:49.360Z,23.81
2022-10-01T08:39:51.213Z,23.83
2022-10-01T08:40:52.996Z,23.56
2022-10-01T08:42:08.552Z,23.83
2022-10-01T08:43:29.516Z,23.60
2022-10-01T08:44:41.252Z,23.92
2022-10-01T08:45:49.189Z,24.13
2022-10-01T08:46:52.708Z,23.95
2022-10-01T08:48:05.523Z,24.05
2022-10-01T08:49:22.912Z,24.05
2022-10-01T08:50:30.676Z,24.16
2022-10-01T08:51:52.389Z,23.96
2022-10-01T08:53:01.785Z,23.93
2022-10-01T08:54:28.997Z,24.01
2022-10-01T08:55:36.510Z,23.98
2022-10-01T08:56:44.401Z,23.70
2022-10-01T08:57:53.496Z,24.18
2022-10-01T08:59:02.824Z,23.94
2022-10-01T09:00:08.492Z,24.18
2022-10-01T09:01:11.867Z,23.92
2022-10-01T09:02:24.037Z,23.92
2022-10-01T09:03:30.193Z,23.99
2022-10-01T09:04:32.060Z,23.99
2022-10-01T09:06:07.973Z,24.18
2022-10-01T09:07:45.101Z,24.29
2022-10-01T09:08:57.297Z,24.09
2022-10-01T09:10:24.807Z,24.29
2022-10-01T09:11:38.778Z,24.28
2022-10-01T09:13:10.555Z,24.30
2022-10-01T09:14:25.008Z,24.30
2022-10-01T09:15:59.298Z,24.34
2022-10-01T09:17:34.951Z,24.23
2022-10-01T09:19:06.493Z,24.38
2022-10-01T09:20:16.810Z,24.24
2022-10-01T09:21:32.915Z,24.31
2022-10-01T09:22:44.542Z,24.05
2022-10-01T09:24:13.168Z,24.25
2022-10-01T09:25:27.738Z,23.92
2022-10-01T09:26:29.491Z,23.89
2022-10-01T09:27:31.998Z,23.26
2022-10-01T09:28:35.388Z,24.07
2022-10-01T09:29:43.213Z,24.11
2022-10-01T09:30:54.874Z,24.16
2022-10-01T09:31:58.863Z,24.09
2022-10-01T09:33:16.562Z,24.18
2022-10-01T09:34:29.890Z,24.11
2022-10-01T09:35:40.617Z,24.18
2022-10-01T09:36:45.493Z,24.32
2022-10-01T09:38:08.426Z,24.11
2022-10-01T09:39:15.138Z,24.36
2022-10-01T09:40:35.646Z,24.34
2022-10-01T09:41:37.717Z,24.21
2022-10-01T09:42:39.411Z,24.10
2022-10-01T09:43:43.869Z,23.67
2022-10-01T09:44:47.579Z,23.98
2022-10-01T09:45:52.573Z,24.23
2022-10-01T09:46:58.093Z,24.32
2022-10-01T09:48:12.884Z,24.13
2022-10-01T09:49:44.136Z,24.42
2022-10-01T09:50:59.022Z,24.27
2022-10-01T09:52:10.501Z,24.13
2022-10-01T09:53:20.226Z,24.42
2022-10-01T09:54:39.465Z,24.42
2022-10-01T09:55:44.335Z,24.42
2022-10-01T09:56:57.564Z,24.42
2022-10-01T09:58:08.222Z,24.20
2022-10-01T09:59:20.507Z,24.42
2022-10-01T10:00:25.158Z,24.42
2022-10-01T10:01:44.014Z,23.93
2022-10-01T10:02:54.426Z,24.26
2022-10-01T10:03:58.016Z,24.44
2022-10-01T10:05:14.315Z,24.42
2022-10-01T10:06:16.167Z,24.45
2022-10-01T10:07:19.229Z,24.37
2022-10-01T10:08:21.316Z,24.43
2022-10-01T10:09:30.173Z,24.07
2022-10-01T10:10:35.808Z,24.23
2022-10-01T10:11:42.809Z,23.89
2022-10-01T10:12:45.716Z,24.12
2022-10-01T10:13:56.338Z,24.04
2022-10-01T10:15:08.683Z,24.33
2022-10-01T10:16:27.051Z,24.30
2022-10-01T10:17:29.055Z,24.30
2022-10-01T10:18:36.415Z,24.33
2022-10-01T10:19:39.251Z,24.02
2022-10-01T10:20:44.735Z,23.64
2022-10-01T10:21:59.764Z,24.28
2022-10-01T10:23:19.141Z,24.33
2022-10-01T10:24:41.075Z,24.57
2022-10-01T10:25:43.487Z,24.33
2022-10-01T10:26:56.510Z,24.39
2022-10-01T10:27:59.715Z,24.40
2022-10-01T10:29:03.189Z,24.51
2022-10-01T10:30:13.874Z,24.36
2022-10-01T10:31:24.578Z,24.35
2022-10-01T10:32:27.708Z,24.28
2022-10-01T10:33:29.534Z,24.33
2022-10-01T10:34:40.648Z,24.23
2022-10-01T10:35:43.473Z,24.30
2022-10-01T10:36:46.806Z,24.53
2022-10-01T10:37:51.568Z,24.31
2022-10-01T10:38:53.831Z,24.34
2022-10-01T10:39:57.288Z,24.34
2022-10-01T10:40:59.434Z,24.34
2022-10-01T10:42:04.114Z,24.30
2022-10-01T10:43:06.024Z,24.17
2022-10-01T10:44:08.624Z,24.39
2022-10-01T10:45:18.420Z,24.54
2022-10-01T10:46:31.603Z,24.31
2022-10-01T10:47:45.660Z,24.20
2022-10-01T10:48:58.896Z,24.38
2022-10-01T10:50:04.888Z,23.80
2022-10-01T10:51:06.927Z,24.40
2022-10-01T10:52:19.871Z,24.60
2022-10-01T10:53:24.811Z,24.60
2022-10-01T10:54:33.579Z,24.39
2022-10-01T10:55:35.408Z,24.38
2022-10-01T10:56:38.512Z,24.59
2022-10-01T10:57:40.237Z,24.43
2022-10-01T10:58:43.090Z,24.38
2022-10-01T10:59:57.403Z,24.60
2022-10-01T11:01:10.142Z,24.22
2022-10-01T11:02:21.315Z,24.49
2022-10-01T11:03:27.252Z,23.96
2022-10-01T11:04:38.191Z,24.63
2022-10-01T11:05:42.396Z,24.42
2022-10-01T11:06:54.811Z,24.33
2022-10-01T11:08:00.574Z,24.44
2022-10-01T11:09:08.981Z,24.55
2022-10-01T11:10:30.238Z,24.67
2022-10-01T11:11:53.507Z,24.59
2022-10-01T11:13:12.873Z,24.69
2022-10-01T11:14:40.137Z,24.64
2022-10-01T11:16:09.012Z,24.72
2022-10-01T11:17:31.091Z,24.77
2022-10-01T11:18:41.536Z,24.73
2022-10-01T11:19:59.648Z,24.50
2022-10-01T11:21:10.072Z,24.70
2022-10-01T11:22:24.543Z,24.48
2022-10-01T11:23:38.099Z,24.70
2022-10-01T11:24:52.246Z,24.69
2022-10-01T11:26:34.215Z,24.49
2022-10-01T11:27:45.266Z,24.74
2022-10-01T11:29:09.631Z,24.73
2022-10-01T11:30:20.827Z,24.72
2022-10-01T11:31:43.933Z,24.72
2022-10-01T11:32:49.554Z,24.51
2022-10-01T11:34:03.388Z,24.69
2022-10-01T11:35:14.017Z,24.68
2022-10-01T11:36:15.938Z,24.67
2022-10-01T11:37:35.664Z,24.69
2022-10-01T11:38:43.448Z,24.69
2022-10-01T11:39:49.183Z,24.46
2022-10-01T11:41:26.965Z,24.72
2022-10-01T11:42:36.321Z,24.54
2022-10-01T11:43:44.359Z,24.55
2022-10-01T11:45:00.559Z,24.70
2022-10-01T11:46:10.678Z,24.71
2022-10-01T11:47:31.174Z,24.63
2022-10-01T11:48:51.290Z,24.71
2022-10-01T11:49:55.784Z,24.73
2022-10-01T11:51:05.538Z,24.71
2022-10-01T11:52:11.484Z,24.22
2022-10-01T11:53:22.029Z,24.69
2022-10-01T11:54:27.770Z,23.72
2022-10-01T11:55:53.720Z,24.69
2022-10-01T11:57:17.312Z,24.52
2022-10-01T11:58:55.319Z,24.74
2022-10-01T12:00:04.263Z,24.60
2022-10-01T12:01:25.235Z,24.69
2022-10-01T12:02:35.852Z,24.56
2022-10-01T12:03:51.166Z,24.55
2022-10-01T12:04:58.216Z,24.74
2022-10-01T12:06:00.692Z,23.81
2022-10-01T12:07:28.937Z,24.75
2022-10-01T12:08:32.660Z,24.76
2022-10-01T12:09:48.478Z,24.73
2022-10-01T12:11:21.176Z,24.78
2022-10-01T12:12:28.151Z,24.64
2022-10-01T12:13:40.294Z,24.76
2022-10-01T12:15:23.085Z,24.79
2022-10-01T12:16:37.215Z,24.81
2022-10-01T12:18:01.570Z,24.68
2022-10-01T12:19:14.858Z,24.58
2022-10-01T12:20:43.636Z,24.62
2022-10-01T12:22:07.822Z,24.82
2022-10-01T12:23:18.069Z,24.82
2022-10-01T12:24:29.388Z,24.49
2022-10-01T12:25:51.828Z,24.82
2022-10-01T12:27:09.088Z,24.80
2022-10-01T12:28:18.202Z,24.37
2022-10-01T12:29:25.499Z,24.79
2022-10-01T12:30:41.998Z,24.56
2022-10-01T12:32:06.114Z,24.43
2022-10-01T12:33:20.147Z,24.81
2022-10-01T12:34:37.050Z,24.64
2022-10-01T12:35:51.453Z,24.61
2022-10-01T12:36:53.294Z,24.81
2022-10-01T12:38:10.045Z,24.81
2022-10-01T12:39:42.167Z,24.81
2022-10-01T12:40:53.878Z,24.83
2022-10-01T12:42:04.007Z,24.55
2022-10-01T12:43:30.164Z,24.80
2022-10-01T12:44:40.590Z,24.82
2022-10-01T12:45:48.045Z,24.82
2022-10-01T12:47:17.958Z,24.58
2022-10-01T12:48:32.717Z,24.68
2022-10-01T12:49:41.319Z,24.82
2022-10-01T12:50:45.791Z,24.81
2022-10-01T12:51:53.168Z,24.59
2022-10-01T12:53:48.405Z,24.34
2022-10-01T12:54:58.934Z,24.91
2022-10-01T12:56:18.777Z,24.79
2022-10-01T12:57:38.108Z,24.79
2022-10-01T12:59:11.941Z,24.47
2022-10-01T13:00:26.268Z,24.54
2022-10-01T13:01:34.595Z,24.91
2022-10-01T13:03:14.873Z,24.90
2022-10-01T13:04:28.544Z,24.95
2022-10-01T13:06:01.267Z,24.97
2022-10-01T13:07:18.942Z,25.01
2022-10-01T13:08:47.754Z,24.89
2022-10-01T13:10:18.802Z,25.05
2022-10-01T13:11:46.619Z,25.03
2022-10-01T13:13:07.853Z,25.05
2022-10-01T13:14:16.943Z,24.86
2022-10-01T13:15:25.731Z,24.73
2022-10-01T13:16:39.270Z,25.03
2022-10-01T13:17:51.132Z,24.78
2022-10-01T13:19:17.099Z,24.89
2022-10-01T13:20:30.268Z,24.78
2022-10-01T13:21:33.037Z,25.07
2022-10-01T13:22:50.904Z,24.68
2022-10-01T13:23:53.522Z,25.07
2022-10-01T13:25:20.039Z,24.95
2022-10-01T13:26:48.502Z,25.14
2022-10-01T13:28:22.639Z,25.16
2022-10-01T13:29:30.639Z,25.14
2022-10-01T13:30:51.006Z,24.60
2022-10-01T13:31:57.410Z,25.12
2022-10-01T13:33:05.342Z,24.77
2022-10-01T13:34:33.405Z,25.11
2022-10-01T13:35:39.729Z,24.94
2022-10-01T13:36:41.656Z,24.32
2022-10-01T13:37:44.924Z,24.43
2022-10-01T13:38:47.716Z,24.42
2022-10-01T13:39:49.654Z,24.21
2022-10-01T13:41:04.071Z,25.02
2022-10-01T13:42:06.109Z,24.67
2022-10-01T13:43:16.365Z,25.06
2022-10-01T13:44:44.260Z,25.13
2022-10-01T13:45:49.136Z,25.01
2022-10-01T13:47:00.053Z,25.10
2022-10-01T13:48:07.151Z,24.86
2022-10-01T13:49:25.577Z,25.10
2022-10-01T13:50:27.324Z,24.99
2022-10-01T13:51:40.711Z,24.93
2022-10-01T13:52:42.477Z,24.90
2022-10-01T13:53:44.979Z,25.08
2022-10-01T13:54:50.904Z,24.86
2022-10-01T13:55:54.633Z,24.63
2022-10-01T13:57:07.932Z,25.09
2022-10-01T13:58:44.108Z,25.17
2022-10-01T13:59:45.807Z,24.93
2022-10-01T14:00:49.933Z,25.12
2022-10-01T14:01:52.107Z,25.02
2022-10-01T14:03:05.981Z,25.09
2022-10-01T14:04:23.713Z,25.11
2022-10-01T14:05:42.323Z,25.00
2022-10-01T14:06:58.951Z,24.97
2022-10-01T14:08:50.315Z,25.20
2022-10-01T14:09:54.816Z,25.07
2022-10-01T14:11:31.675Z,24.76
2022-10-01T14:12:54.190Z,25.19
2022-10-01T14:14:22.501Z,24.99
2022-10-01T14:15:49.053Z,25.00
2022-10-01T14:16:51.026Z,25.01
2022-10-01T14:17:55.895Z,24.87
2022-10-01T14:18:57.915Z,24.84
2022-10-01T14:20:01.164Z,25.07
2022-10-01T14:21:21.558Z,25.08
2022-10-01T14:22:45.093Z,24.90
2022-10-01T14:24:06.220Z,25.13
2022-10-01T14:25:13.570Z,25.14
2022-10-01T14:26:26.167Z,24.88
2022-10-01T14:27:45.467Z,24.99
2022-10-01T14:28:58.992Z,24.65
2022-10-01T14:30:09.995Z,25.12
2022-10-01T14:31:39.113Z,25.15
2022-10-01T14:33:05.240Z,24.97
2022-10-01T14:34:15.952Z,25.17